CheckWX is a tool to help pilots better visualize weather data.  It is not intended as a substitute for an official pre-flight weather briefing.

06:02:13 UTC

EGJB METAR
Guernsey Airport
Saint Peter Port, Guernsey
Current

1 hour ago

EGJB 020450Z 03007KT CAVOK 13/10 Q1020
Observed
Jun-2 @ 04:50 UTC
Wind
  • 030° at 7 KTS
Visibility
10,000+ meters
Flight Rules
VFR
Cloud Levels
  • Clear skies
Temperature
13°C / 55°F
Dewpoint
10°C / 50°F
Humidity
82%
Altimeter
30.12" Hg
Pressure
1019.92 hPa
Previous

2 hours ago

EGJB 020350Z 04007KT CAVOK 13/10 Q1020
Observed
Jun-2 @ 03:50 UTC
Wind
  • 040° at 7 KTS
Visibility
10,000+ meters
Flight Rules
VFR
Cloud Levels
  • Clear skies
Temperature
13°C / 55°F
Dewpoint
10°C / 50°F
Humidity
82%
Altimeter
30.12" Hg
Pressure
1019.92 hPa
Previous

3 hours ago

EGJB 020250Z 03006KT CAVOK 13/10 Q1020
Observed
Jun-2 @ 02:50 UTC
Wind
  • 030° at 6 KTS
Visibility
10,000+ meters
Flight Rules
VFR
Cloud Levels
  • Clear skies
Temperature
13°C / 55°F
Dewpoint
10°C / 50°F
Humidity
82%
Altimeter
30.12" Hg
Pressure
1019.92 hPa